createdAt,value
2022-10-18T00:00:19.970Z,10.30
2022-10-18T00:02:47.257Z,15.27
2022-10-18T00:05:13.873Z,13.23
2022-10-18T00:07:41.290Z,11.30
2022-10-18T00:10:08.620Z,15.30
2022-10-18T00:12:37.291Z,16.92
2022-10-18T00:15:05.799Z,13.68
2022-10-18T00:17:35.509Z,13.73
2022-10-18T00:20:02.374Z,10.63
2022-10-18T00:22:29.951Z,13.38
2022-10-18T00:24:56.872Z,14.63
2022-10-18T00:27:24.306Z,14.25
2022-10-18T00:29:53.281Z,12.93
2022-10-18T00:32:20.848Z,13.40
2022-10-18T00:34:47.637Z,16.13
2022-10-18T00:37:15.309Z,14.95
2022-10-18T00:39:42.123Z,12.20
2022-10-18T00:42:16.454Z,14.50
2022-10-18T00:44:43.038Z,13.57
2022-10-18T00:47:12.827Z,12.82
2022-10-18T00:49:45.394Z,13.15
2022-10-18T00:52:32.872Z,15.50
2022-10-18T00:55:00.428Z,14.95
2022-10-18T00:57:28.046Z,15.60
2022-10-18T00:59:55.002Z,20.40
2022-10-18T01:02:22.309Z,12.05
2022-10-18T01:04:49.051Z,23.83
2022-10-18T01:07:28.618Z,18.75
2022-10-18T01:10:20.948Z,16.00
2022-10-18T01:13:03.636Z,20.00
2022-10-18T01:15:50.031Z,18.83
2022-10-18T01:18:20.148Z,14.95
2022-10-18T01:21:12.849Z,17.20
2022-10-18T01:24:13.419Z,18.02
2022-10-18T01:27:07.372Z,17.30
2022-10-18T01:30:16.929Z,20.15
2022-10-18T01:32:48.976Z,22.17
2022-10-18T01:35:23.317Z,19.90
2022-10-18T01:37:53.813Z,19.17
2022-10-18T01:40:23.476Z,14.45
2022-10-18T01:42:51.157Z,20.15
2022-10-18T01:45:19.749Z,24.42
2022-10-18T01:47:48.461Z,23.85
2022-10-18T01:50:15.412Z,26.83
2022-10-18T01:52:50.284Z,24.95
2022-10-18T01:55:21.238Z,32.28
2022-10-18T01:58:10.362Z,18.20
2022-10-18T02:00:44.124Z,23.98
2022-10-18T02:03:22.506Z,25.33
2022-10-18T02:05:56.525Z,21.15
2022-10-18T02:08:44.747Z,23.02
2022-10-18T02:11:15.635Z,19.63
2022-10-18T02:13:52.219Z,26.38
2022-10-18T02:16:28.302Z,20.83
2022-10-18T02:19:14.975Z,23.23
2022-10-18T02:21:45.686Z,24.77
2022-10-18T02:24:14.408Z,21.83
2022-10-18T02:26:42.163Z,23.35
2022-10-18T02:29:09.656Z,26.45
2022-10-18T02:31:44.536Z,24.67
2022-10-18T02:34:17.391Z,20.92
2022-10-18T02:36:48.672Z,24.08
2022-10-18T02:39:21.731Z,32.70
2022-10-18T02:41:49.443Z,22.15
2022-10-18T02:44:16.297Z,23.38
2022-10-18T02:46:44.045Z,30.20
2022-10-18T02:49:11.332Z,30.83
2022-10-18T02:51:38.004Z,27.15
2022-10-18T02:54:05.488Z,27.00
2022-10-18T02:56:32.345Z,31.55
2022-10-18T02:58:59.677Z,28.52
2022-10-18T03:01:26.428Z,24.55
2022-10-18T03:03:53.913Z,32.60
2022-10-18T03:06:20.545Z,27.55
2022-10-18T03:08:47.813Z,26.75
2022-10-18T03:11:14.446Z,24.10
2022-10-18T03:13:41.698Z,26.67
2022-10-18T03:16:08.652Z,27.05
2022-10-18T03:18:36.001Z,30.27
2022-10-18T03:21:06.973Z,29.35
2022-10-18T03:23:35.048Z,30.02
2022-10-18T03:26:02.414Z,36.20
2022-10-18T03:28:29.763Z,32.75
2022-10-18T03:31:01.855Z,29.48
2022-10-18T03:33:30.066Z,26.85
2022-10-18T03:35:56.660Z,33.83
2022-10-18T03:38:23.962Z,26.15
2022-10-18T03:40:50.901Z,34.42
2022-10-18T03:43:18.174Z,30.63
2022-10-18T03:45:44.780Z,33.10
2022-10-18T03:48:12.063Z,37.22
2022-10-18T03:50:38.950Z,27.80
2022-10-18T03:53:06.536Z,33.90
2022-10-18T03:55:33.163Z,29.05
2022-10-18T03:58:00.511Z,29.45
2022-10-18T04:00:27.175Z,33.50
2022-10-18T04:02:55.893Z,37.05
2022-10-18T04:05:24.092Z,30.63
2022-10-18T04:07:51.488Z,25.80
2022-10-18T04:10:18.600Z,38.13
2022-10-18T04:12:45.885Z,33.90
2022-10-18T04:15:12.552Z,37.42
2022-10-18T04:17:39.873Z,27.30
2022-10-18T04:20:07.164Z,41.20
2022-10-18T04:22:34.457Z,39.38
2022-10-18T04:25:01.245Z,41.78
2022-10-18T04:27:28.487Z,38.47
2022-10-18T04:29:55.134Z,39.10
2022-10-18T04:32:22.601Z,37.42
2022-10-18T04:34:49.286Z,44.10
2022-10-18T04:37:17.494Z,38.25
2022-10-18T04:39:51.151Z,39.90
2022-10-18T04:42:21.547Z,41.20
2022-10-18T04:44:48.325Z,49.38
2022-10-18T04:47:16.622Z,49.25
2022-10-18T04:49:43.398Z,45.97
2022-10-18T04:52:10.819Z,46.88
2022-10-18T04:54:37.857Z,48.03
2022-10-18T04:57:05.131Z,45.55
2022-10-18T04:59:31.730Z,52.25
2022-10-18T05:01:58.733Z,45.03
2022-10-18T05:04:26.010Z,48.67
2022-10-18T05:06:52.646Z,43.13
2022-10-18T05:09:22.451Z,45.28
2022-10-18T05:11:49.031Z,42.95
2022-10-18T05:14:16.511Z,43.10
2022-10-18T05:16:43.103Z,41.55
2022-10-18T05:19:10.595Z,41.15
2022-10-18T05:21:37.203Z,43.97
2022-10-18T05:24:04.672Z,46.63
2022-10-18T05:26:31.255Z,43.10
2022-10-18T05:28:58.577Z,47.65
2022-10-18T05:31:25.205Z,41.50
2022-10-18T05:33:52.492Z,49.40
2022-10-18T05:36:19.148Z,49.03
2022-10-18T05:38:48.337Z,49.05
2022-10-18T05:41:15.087Z,48.00
2022-10-18T05:43:42.462Z,54.17
2022-10-18T05:46:14.550Z,49.80
2022-10-18T05:48:44.350Z,49.30
2022-10-18T05:51:11.763Z,52.75
2022-10-18T05:53:39.055Z,51.20
2022-10-18T05:56:06.908Z,48.17
2022-10-18T05:58:34.598Z,51.97
2022-10-18T06:01:02.743Z,49.40
2022-10-18T06:03:33.449Z,59.78
2022-10-18T06:06:01.626Z,59.05
2022-10-18T06:08:28.939Z,59.13
2022-10-18T06:10:55.782Z,63.47
2022-10-18T06:13:23.038Z,70.15
2022-10-18T06:15:49.867Z,75.43
2022-10-18T06:18:17.266Z,69.35
2022-10-18T06:20:43.959Z,63.55
2022-10-18T06:23:11.448Z,61.65
2022-10-18T06:25:38.059Z,59.88
2022-10-18T06:28:07.960Z,56.13
2022-10-18T06:30:36.960Z,62.67
2022-10-18T06:33:04.282Z,60.17
2022-10-18T06:35:30.899Z,64.63
2022-10-18T06:37:58.238Z,67.38
2022-10-18T06:40:24.959Z,73.95
2022-10-18T06:43:00.110Z,66.78
2022-10-18T06:45:34.113Z,61.65
2022-10-18T06:48:01.439Z,62.00
2022-10-18T06:50:28.096Z,73.60
2022-10-18T06:52:54.736Z,68.68
2022-10-18T06:55:21.348Z,70.63
2022-10-18T06:57:48.686Z,69.63
2022-10-18T07:00:15.620Z,69.18
2022-10-18T07:02:43.035Z,75.80
2022-10-18T07:05:11.005Z,74.75
2022-10-18T07:07:38.825Z,77.60
2022-10-18T07:10:06.249Z,74.22
2022-10-18T07:12:33.754Z,76.90
2022-10-18T07:15:00.413Z,77.80
2022-10-18T07:17:28.161Z,78.95
2022-10-18T07:19:54.864Z,78.03
2022-10-18T07:22:22.985Z,82.57
2022-10-18T07:24:51.630Z,92.40
2022-10-18T07:27:18.905Z,83.90
2022-10-18T07:29:45.485Z,78.80
2022-10-18T07:32:12.838Z,85.97
2022-10-18T07:34:39.701Z,91.78
2022-10-18T07:37:06.994Z,86.13
2022-10-18T07:39:33.618Z,113.57
2022-10-18T07:42:00.878Z,105.45
2022-10-18T07:44:27.487Z,105.70
2022-10-18T07:46:54.766Z,103.95
2022-10-18T07:49:21.442Z,109.07
2022-10-18T07:51:48.780Z,105.15
2022-10-18T07:54:15.462Z,126.72
2022-10-18T07:56:43.176Z,120.30
2022-10-18T07:59:11.100Z,123.28
2022-10-18T08:01:38.439Z,121.47
2022-10-18T08:04:07.973Z,119.50
2022-10-18T08:06:37.097Z,114.78
2022-10-18T08:09:04.453Z,130.20
2022-10-18T08:11:32.359Z,112.72
2022-10-18T08:13:59.171Z,119.05
2022-10-18T08:16:28.997Z,126.60
2022-10-18T08:18:58.245Z,116.40
2022-10-18T08:21:25.967Z,118.78
2022-10-18T08:23:53.742Z,123.28
2022-10-18T08:26:22.948Z,126.43
2022-10-18T08:28:58.282Z,117.32
2022-10-18T08:31:37.092Z,122.63
2022-10-18T08:34:03.689Z,129.65
2022-10-18T08:36:30.937Z,132.23
2022-10-18T08:38:57.545Z,120.90
2022-10-18T08:41:37.155Z,124.57
2022-10-18T08:44:24.405Z,117.10
2022-10-18T08:46:56.177Z,116.93
2022-10-18T08:49:46.871Z,126.82
2022-10-18T08:55:36.402Z,123.75
2022-10-18T08:58:24.930Z,140.85
2022-10-18T09:00:54.579Z,141.43
2022-10-18T09:03:25.005Z,123.72
2022-10-18T09:06:04.237Z,162.88
2022-10-18T09:08:53.163Z,132.32
2022-10-18T09:11:27.493Z,124.10
2022-10-18T09:14:16.046Z,119.35
2022-10-18T09:17:00.470Z,125.80
2022-10-18T09:20:02.849Z,128.40
2022-10-18T09:22:54.148Z,126.18
2022-10-18T09:25:36.995Z,136.27
2022-10-18T09:30:59.804Z,134.30
2022-10-18T09:33:50.639Z,137.23
2022-10-18T09:36:22.658Z,144.98
2022-10-18T09:39:15.241Z,137.00
2022-10-18T09:41:56.223Z,155.02
2022-10-18T09:44:33.402Z,151.38
2022-10-18T09:47:05.843Z,138.02
2022-10-18T09:49:41.944Z,143.63
2022-10-18T09:52:17.379Z,143.98
2022-10-18T09:54:55.239Z,144.60
2022-10-18T09:57:35.554Z,138.18
2022-10-18T10:00:04.909Z,131.73
2022-10-18T10:02:32.300Z,118.45
2022-10-18T10:04:58.934Z,119.18
2022-10-18T10:07:32.479Z,120.72
2022-10-18T10:10:21.109Z,118.82
2022-10-18T10:12:49.352Z,123.20
2022-10-18T10:15:22.613Z,113.40
2022-10-18T10:18:02.001Z,111.13
2022-10-18T10:20:42.685Z,101.50
2022-10-18T10:23:25.254Z,118.53
2022-10-18T10:26:02.113Z,99.15
2022-10-18T10:28:33.448Z,89.20
2022-10-18T10:31:24.266Z,91.40
2022-10-18T10:34:02.710Z,88.20
2022-10-18T10:36:30.536Z,72.63
2022-10-18T10:39:16.394Z,68.70
2022-10-18T10:41:43.402Z,66.88
2022-10-18T10:44:19.198Z,67.93
2022-10-18T10:46:48.538Z,64.70
2022-10-18T10:49:39.191Z,67.93
2022-10-18T10:52:26.927Z,68.07
2022-10-18T10:55:05.687Z,67.15
2022-10-18T10:57:38.555Z,61.92
2022-10-18T11:00:05.541Z,57.28
2022-10-18T11:02:34.655Z,58.03
2022-10-18T11:05:24.747Z,50.55
2022-10-18T11:07:56.519Z,52.45
2022-10-18T11:10:28.048Z,54.85
2022-10-18T11:13:24.615Z,47.88
2022-10-18T11:16:00.254Z,50.53
2022-10-18T11:18:33.344Z,44.65
2022-10-18T11:21:12.979Z,55.78
2022-10-18T11:23:43.043Z,48.30
2022-10-18T11:26:12.492Z,55.95
2022-10-18T11:29:15.510Z,54.80
2022-10-18T11:31:50.776Z,60.65
2022-10-18T11:34:42.331Z,65.13
2022-10-18T11:37:42.685Z,65.72
2022-10-18T11:40:41.701Z,70.20
2022-10-18T11:43:30.207Z,61.75
2022-10-18T11:46:13.425Z,70.15
2022-10-18T11:48:56.756Z,60.80
2022-10-18T11:51:38.870Z,70.75
2022-10-18T11:54:36.782Z,66.18
2022-10-18T11:57:34.074Z,57.47
2022-10-18T12:00:22.757Z,69.03
2022-10-18T12:03:12.020Z,62.33
2022-10-18T12:05:41.145Z,58.80
2022-10-18T12:08:17.560Z,55.10
2022-10-18T12:11:04.109Z,48.40
2022-10-18T12:14:05.513Z,51.08
2022-10-18T12:16:50.618Z,45.53
2022-10-18T12:19:26.320Z,41.60
2022-10-18T12:21:56.884Z,48.67
2022-10-18T12:24:30.263Z,57.42
2022-10-18T12:27:02.138Z,58.53
2022-10-18T12:29:53.012Z,54.28
2022-10-18T12:32:27.047Z,56.25
2022-10-18T12:35:24.081Z,49.80
2022-10-18T12:38:07.803Z,59.05
2022-10-18T12:40:42.886Z,47.03
2022-10-18T12:43:17.814Z,47.72
2022-10-18T12:45:57.483Z,45.72
2022-10-18T12:48:30.704Z,50.20
2022-10-18T12:51:00.116Z,52.42
2022-10-18T12:53:28.712Z,40.60
2022-10-18T12:55:55.894Z,51.75
2022-10-18T12:58:29.646Z,41.22
2022-10-18T13:01:01.069Z,44.03
2022-10-18T13:03:38.494Z,47.45
2022-10-18T13:06:06.734Z,41.63
2022-10-18T13:08:42.017Z,42.67
2022-10-18T13:11:08.772Z,48.08
2022-10-18T13:13:51.266Z,45.90
2022-10-18T13:16:27.472Z,50.22
2022-10-18T13:19:11.524Z,42.47
2022-10-18T13:21:55.364Z,53.65
2022-10-18T13:24:33.811Z,41.60
2022-10-18T13:27:42.625Z,42.20
2022-10-18T13:30:43.520Z,43.90
2022-10-18T13:33:34.640Z,46.85
2022-10-18T13:36:22.788Z,41.55
2022-10-18T13:38:53.672Z,39.35
2022-10-18T13:44:04.018Z,43.35
2022-10-18T13:46:33.649Z,42.83
2022-10-18T13:49:38.876Z,48.70
2022-10-18T13:52:43.677Z,46.83
2022-10-18T13:55:41.257Z,45.08
2022-10-18T13:58:15.149Z,38.95
2022-10-18T14:01:14.225Z,41.28
2022-10-18T14:04:03.741Z,43.05
2022-10-18T14:06:41.268Z,44.45
2022-10-18T14:09:40.306Z,44.60
2022-10-18T14:12:30.993Z,40.25
2022-10-18T14:15:07.218Z,40.85
2022-10-18T14:17:55.875Z,50.60
2022-10-18T14:20:29.965Z,33.50
2022-10-18T14:23:03.255Z,41.90
2022-10-18T14:25:35.663Z,38.47
2022-10-18T14:28:14.340Z,38.40
2022-10-18T14:31:02.733Z,34.35
2022-10-18T14:33:50.905Z,37.92
2022-10-18T14:36:20.324Z,38.90
2022-10-18T14:38:49.474Z,35.55
2022-10-18T14:41:52.362Z,36.00
2022-10-18T14:44:25.026Z,39.20
2022-10-18T14:47:11.832Z,34.53
2022-10-18T14:49:46.921Z,32.35
2022-10-18T14:52:22.972Z,33.65
2022-10-18T14:54:55.216Z,36.70
2022-10-18T14:57:31.645Z,28.40
2022-10-18T15:00:01.883Z,27.80
2022-10-18T15:02:32.552Z,31.42
2022-10-18T15:05:19.677Z,26.90
2022-10-18T15:07:48.065Z,27.92
2022-10-18T15:10:25.335Z,26.52
2022-10-18T15:13:10.593Z,23.45
2022-10-18T15:15:38.600Z,18.98
2022-10-18T15:18:07.116Z,19.48
2022-10-18T15:20:39.384Z,17.58
2022-10-18T15:23:27.414Z,19.63
2022-10-18T15:26:03.020Z,21.13
2022-10-18T15:28:33.743Z,20.63
2022-10-18T15:31:01.893Z,20.17
2022-10-18T15:33:34.913Z,19.92
2022-10-18T15:36:19.544Z,14.15
2022-10-18T15:38:49.857Z,11.50
2022-10-18T15:41:37.016Z,13.05
2022-10-18T15:44:13.217Z,16.55
2022-10-18T15:46:40.973Z,14.13
2022-10-18T15:49:45.392Z,14.45
2022-10-18T15:52:37.821Z,20.15
2022-10-18T15:55:45.575Z,20.10
2022-10-18T15:58:18.828Z,18.33
2022-10-18T16:03:14.648Z,14.95
2022-10-18T16:05:41.916Z,18.67
2022-10-18T16:08:30.862Z,18.52
2022-10-18T16:10:58.762Z,14.70
2022-10-18T16:13:27.311Z,18.00
2022-10-18T16:15:57.105Z,12.82
2022-10-18T16:18:25.114Z,12.93
2022-10-18T16:20:51.753Z,13.60
2022-10-18T16:23:26.767Z,12.23
2022-10-18T16:25:53.908Z,21.50
2022-10-18T16:28:24.070Z,12.38
2022-10-18T16:30:55.333Z,17.85
2022-10-18T16:33:23.342Z,11.75
2022-10-18T16:35:50.793Z,13.25
2022-10-18T16:38:37.270Z,18.00
2022-10-18T16:41:05.395Z,18.63
2022-10-18T16:43:34.881Z,15.73
2022-10-18T16:46:02.338Z,25.65
2022-10-18T16:48:29.838Z,17.52
2022-10-18T16:50:58.333Z,16.90
2022-10-18T16:53:26.425Z,14.25
2022-10-18T16:55:56.398Z,23.10
2022-10-18T17:00:56.186Z,15.77
2022-10-18T17:03:23.543Z,17.63
2022-10-18T17:05:50.696Z,16.75
2022-10-18T17:08:23.140Z,16.42
2022-10-18T17:10:52.892Z,13.43
2022-10-18T17:13:21.170Z,16.15
2022-10-18T17:15:48.509Z,19.50
2022-10-18T17:18:20.427Z,15.00
2022-10-18T17:20:47.538Z,22.45
2022-10-18T17:23:15.758Z,18.77
2022-10-18T17:25:57.742Z,25.83
2022-10-18T17:28:33.773Z,18.88
2022-10-18T17:31:00.487Z,20.90
2022-10-18T17:33:27.763Z,19.83
2022-10-18T17:35:54.426Z,23.40
2022-10-18T17:38:21.800Z,19.08
2022-10-18T17:40:48.404Z,24.90
2022-10-18T17:43:15.357Z,29.45
2022-10-18T17:45:50.804Z,27.98
2022-10-18T17:48:18.349Z,16.30
2022-10-18T17:50:44.972Z,21.05
2022-10-18T17:53:13.328Z,24.75
2022-10-18T17:55:40.257Z,24.40
2022-10-18T17:58:07.839Z,19.65
2022-10-18T18:00:34.643Z,24.10
2022-10-18T18:03:02.313Z,20.95
2022-10-18T18:05:33.737Z,23.50
2022-10-18T18:08:04.160Z,22.92
2022-10-18T18:10:33.292Z,17.48
2022-10-18T18:13:01.511Z,18.80
2022-10-18T18:15:28.336Z,36.45
2022-10-18T18:17:57.960Z,38.13
2022-10-18T18:20:25.783Z,33.58
2022-10-18T18:22:53.290Z,34.50
2022-10-18T18:25:19.918Z,27.50
2022-10-18T18:27:47.230Z,27.38
2022-10-18T18:30:15.196Z,21.05
2022-10-18T18:32:42.433Z,20.80
2022-10-18T18:35:09.148Z,24.73
2022-10-18T18:37:36.437Z,25.40
2022-10-18T18:40:03.271Z,21.40
2022-10-18T18:42:30.635Z,23.40
2022-10-18T18:44:57.452Z,18.58
2022-10-18T18:47:24.788Z,20.98
2022-10-18T18:49:51.538Z,16.83
2022-10-18T18:52:18.840Z,23.95
2022-10-18T18:54:45.580Z,22.08
2022-10-18T18:57:12.932Z,26.65
2022-10-18T18:59:39.511Z,23.88
2022-10-18T19:02:07.122Z,25.23
2022-10-18T19:04:34.888Z,26.30
2022-10-18T19:07:02.381Z,22.27
2022-10-18T19:09:28.996Z,31.00
2022-10-18T19:11:56.880Z,28.60
2022-10-18T19:14:25.550Z,28.77
2022-10-18T19:16:55.288Z,28.02
2022-10-18T19:19:24.755Z,68.72
2022-10-18T19:21:55.041Z,50.85
2022-10-18T19:24:23.698Z,63.13
2022-10-18T19:26:56.507Z,64.63
2022-10-18T19:29:31.772Z,48.03
2022-10-18T19:32:01.247Z,47.08
2022-10-18T19:34:30.165Z,60.83
2022-10-18T19:36:57.849Z,444.65
2022-10-18T19:39:30.685Z,328.92
2022-10-18T19:42:00.638Z,124.60
2022-10-18T19:44:29.999Z,102.78
2022-10-18T19:46:57.926Z,95.55
2022-10-18T19:49:24.844Z,159.35
2022-10-18T19:51:52.516Z,105.50
2022-10-18T19:54:19.178Z,72.97
2022-10-18T19:56:46.790Z,38.00
2022-10-18T19:59:15.314Z,33.00
2022-10-18T20:01:43.494Z,37.03
2022-10-18T20:04:11.695Z,30.33
2022-10-18T20:06:39.475Z,31.05
2022-10-18T20:09:07.719Z,38.08
2022-10-18T20:11:35.578Z,36.95
2022-10-18T20:14:02.308Z,38.30
2022-10-18T20:16:31.678Z,31.00
2022-10-18T20:19:00.418Z,30.15
2022-10-18T20:21:29.655Z,41.88
2022-10-18T20:23:56.599Z,31.63
2022-10-18T20:26:25.657Z,24.60
2022-10-18T20:28:57.501Z,35.85
2022-10-18T20:31:30.641Z,36.88
2022-10-18T20:33:59.922Z,35.55
2022-10-18T20:36:28.355Z,42.13
2022-10-18T20:38:55.572Z,27.25
2022-10-18T20:41:28.388Z,25.50
2022-10-18T20:43:56.605Z,25.42
2022-10-18T20:46:24.576Z,45.83
2022-10-18T20:48:52.879Z,40.22
2022-10-18T20:51:21.276Z,20.90
2022-10-18T20:53:48.189Z,30.70
2022-10-18T20:56:20.817Z,47.50
2022-10-18T20:58:50.071Z,37.03
2022-10-18T21:01:20.514Z,40.75
2022-10-18T21:03:48.315Z,32.08
2022-10-18T21:06:21.445Z,30.23
2022-10-18T21:08:53.242Z,27.85
2022-10-18T21:11:19.955Z,28.65
2022-10-18T21:13:54.806Z,20.83
2022-10-18T21:16:22.135Z,28.00
2022-10-18T21:18:48.911Z,27.40
2022-10-18T21:21:18.735Z,32.33
2022-10-18T21:23:46.709Z,29.45
2022-10-18T21:26:20.458Z,33.40
2022-10-18T21:28:50.596Z,28.05
2022-10-18T21:31:23.047Z,27.63
2022-10-18T21:33:55.005Z,28.83
2022-10-18T21:36:23.299Z,16.48
2022-10-18T21:38:50.066Z,24.50
2022-10-18T21:41:19.049Z,22.77
2022-10-18T21:43:48.347Z,31.27
2022-10-18T21:46:16.914Z,29.55
2022-10-18T21:48:46.083Z,24.63
2022-10-18T21:51:14.927Z,24.13
2022-10-18T21:53:47.377Z,23.40
2022-10-18T21:56:17.731Z,17.70
2022-10-18T21:58:45.138Z,29.05
2022-10-18T22:01:15.698Z,20.65
2022-10-18T22:03:43.060Z,20.90
2022-10-18T22:06:16.516Z,24.67
2022-10-18T22:08:47.578Z,27.55
2022-10-18T22:11:15.750Z,32.58
2022-10-18T22:13:42.820Z,24.05
2022-10-18T22:16:14.608Z,30.25
2022-10-18T22:18:42.322Z,22.55
2022-10-18T22:21:11.784Z,25.02
2022-10-18T22:23:43.986Z,24.33
2022-10-18T22:26:22.408Z,23.40
2022-10-18T22:28:58.455Z,19.80
2022-10-18T22:31:28.506Z,25.40
2022-10-18T22:34:00.717Z,23.10
2022-10-18T22:36:28.176Z,24.77
2022-10-18T22:38:54.772Z,22.20
2022-10-18T22:41:22.450Z,24.55
2022-10-18T22:43:53.340Z,26.38
2022-10-18T22:46:21.231Z,22.13
2022-10-18T22:48:48.102Z,17.20
2022-10-18T22:51:16.046Z,22.10
2022-10-18T22:53:42.710Z,28.27
2022-10-18T22:56:14.229Z,19.80
2022-10-18T22:58:40.891Z,22.50
2022-10-18T23:01:11.055Z,22.55
2022-10-18T23:03:38.652Z,24.27
2022-10-18T23:06:21.368Z,18.00
2022-10-18T23:08:48.568Z,13.40
2022-10-18T23:11:16.411Z,19.73
2022-10-18T23:13:43.023Z,28.63
2022-10-18T23:16:10.323Z,19.17
2022-10-18T23:18:37.263Z,16.08
2022-10-18T23:21:12.479Z,29.27
2022-10-18T23:23:41.190Z,21.60
2022-10-18T23:26:18.137Z,19.98
2022-10-18T23:28:48.244Z,18.33
2022-10-18T23:31:18.316Z,19.17
2022-10-18T23:33:49.431Z,15.30
2022-10-18T23:36:17.476Z,20.48
2022-10-18T23:38:44.471Z,21.90
2022-10-18T23:41:13.478Z,20.05
2022-10-18T23:43:40.952Z,17.65
2022-10-18T23:46:08.256Z,19.70
2022-10-18T23:48:35.131Z,23.45
2022-10-18T23:51:03.077Z,21.00
2022-10-18T23:53:30.049Z,26.00
2022-10-18T23:55:58.885Z,26.02
2022-10-18T23:58:26.995Z,16.65
